KFMY

Page Field Airport

Fort Myers, Florida, USA
METAR KFMY 180653Z AUTO 00000KT 10SM FEW060 19/18 A3019 RMK AO2 SLP225 T01890178
Observed Flight Rules
Feb-18 @ 06:53 UTC (19 minutes ago) Visual Flight Rules
Wind Visibility Clouds
Calm 10 miles
  • Few at 6,000' AGL
Temperatures Readings
Current 19°C / 66°F
Dewpoint 18°C / 64°F
Humidity 94%
Altimeter 30.19" Hg
Pressure 1022.5 hPa
Elevation 4
METAR KFMY 180653Z AUTO 00000KT 10SM FEW060 19/18 A3019 RMK AO2 SLP225 T01890178
Observed Flight Rules
Feb-18 @ 06:53 UTC
(19 minutes ago)
VFR
Wind Visibility
Calm 10 miles
Clouds
  • Few at 6,000' AGL
Temperature Dewpoint
19°C / 66°F 18°C / 64°F
Humidity Altimeter Pressure
94% 30.19" Hg 1022.5 hPa